createdAt,value
2023-02-23T00:00:44.999Z,95.18
2023-02-23T00:04:48.435Z,95.99
2023-02-23T00:08:53.720Z,95.48
2023-02-23T00:12:56.973Z,96.68
2023-02-23T00:17:01.455Z,97.18
2023-02-23T00:21:04.719Z,97.25
2023-02-23T00:25:11.784Z,95.46
2023-02-23T00:29:17.914Z,94.93
2023-02-23T00:33:22.075Z,96.10
2023-02-23T00:37:25.676Z,94.17
2023-02-23T00:41:30.747Z,93.78
2023-02-23T00:45:34.012Z,94.58
2023-02-23T00:49:37.200Z,93.94
2023-02-23T00:53:40.257Z,95.19
2023-02-23T00:57:44.979Z,95.17
2023-02-23T01:01:48.273Z,94.43
2023-02-23T01:05:51.347Z,95.70
2023-02-23T01:09:54.512Z,93.94
2023-02-23T01:14:00.712Z,94.60
2023-02-23T01:18:03.941Z,93.58
2023-02-23T01:22:06.939Z,94.86
2023-02-23T01:26:16.791Z,97.50
2023-02-23T01:30:21.211Z,95.48
2023-02-23T01:34:24.602Z,95.91
2023-02-23T01:38:28.332Z,95.57
2023-02-23T01:42:31.558Z,94.91
2023-02-23T01:46:39.398Z,96.07
2023-02-23T01:50:49.897Z,96.05
2023-02-23T01:54:54.867Z,94.22
2023-02-23T01:58:59.663Z,94.08
2023-02-23T02:03:08.920Z,93.94
2023-02-23T02:07:20.693Z,93.74
2023-02-23T02:11:30.929Z,95.13
2023-02-23T02:15:38.779Z,95.95
2023-02-23T02:20:15.059Z,96.42
2023-02-23T02:24:44.975Z,96.42
2023-02-23T02:29:18.884Z,97.38
2023-02-23T02:33:47.195Z,95.94
2023-02-23T02:38:01.863Z,97.73
2023-02-23T02:42:14.871Z,95.43
2023-02-23T02:46:19.516Z,95.59
2023-02-23T02:50:25.748Z,96.22
2023-02-23T02:54:33.207Z,96.51
2023-02-23T02:58:39.075Z,95.32
2023-02-23T03:02:59.931Z,96.86
2023-02-23T03:07:24.768Z,97.05
2023-02-23T03:11:54.119Z,95.90
2023-02-23T03:16:20.159Z,95.62
2023-02-23T03:20:45.615Z,96.42
2023-02-23T03:25:10.562Z,94.74
2023-02-23T03:29:37.496Z,95.98
2023-02-23T03:34:03.048Z,95.84
2023-02-23T03:38:27.334Z,94.87
2023-02-23T03:42:51.877Z,95.67
2023-02-23T03:47:14.897Z,96.52
2023-02-23T03:51:37.030Z,95.91
2023-02-23T03:56:00.389Z,97.25
2023-02-23T04:00:23.866Z,95.49
2023-02-23T04:04:47.066Z,95.49
2023-02-23T04:09:09.874Z,96.35
2023-02-23T04:13:14.620Z,97.60
2023-02-23T04:17:18.667Z,95.48
2023-02-23T04:21:23.148Z,94.66
2023-02-23T04:25:27.102Z,95.28
2023-02-23T04:29:30.130Z,96.74
2023-02-23T04:33:33.095Z,95.56
2023-02-23T04:37:37.663Z,96.09
2023-02-23T04:41:40.705Z,97.57
2023-02-23T04:45:43.832Z,96.48
2023-02-23T04:49:47.729Z,97.26
2023-02-23T04:53:58.026Z,96.41
2023-02-23T04:58:02.392Z,96.38
2023-02-23T05:02:05.488Z,97.78
2023-02-23T05:06:08.755Z,97.59
2023-02-23T05:10:14.009Z,97.67
2023-02-23T05:14:17.185Z,97.27
2023-02-23T05:18:20.531Z,95.66
2023-02-23T05:22:24.351Z,96.34
2023-02-23T05:26:28.561Z,96.77
2023-02-23T05:30:31.806Z,95.55
2023-02-23T05:34:35.463Z,94.51
2023-02-23T05:38:38.902Z,94.28
2023-02-23T05:42:43.582Z,94.61
2023-02-23T05:46:49.100Z,94.54
2023-02-23T05:50:52.170Z,96.23
2023-02-23T05:54:55.322Z,96.96
2023-02-23T05:59:00.297Z,97.43
2023-02-23T06:03:03.592Z,96.29
2023-02-23T06:07:06.756Z,96.35
2023-02-23T06:11:10.204Z,96.12
2023-02-23T06:15:14.425Z,96.23
2023-02-23T06:19:17.438Z,97.42
2023-02-23T06:23:20.365Z,96.42
2023-02-23T06:27:23.421Z,96.82
2023-02-23T06:31:27.948Z,95.31
2023-02-23T06:35:31.003Z,95.73
2023-02-23T06:39:34.556Z,97.75
2023-02-23T06:43:37.747Z,98.06
2023-02-23T06:47:42.276Z,96.52
2023-02-23T06:51:45.264Z,97.00
2023-02-23T06:55:48.300Z,96.45
2023-02-23T06:59:51.524Z,97.99
2023-02-23T07:03:56.773Z,97.96
2023-02-23T07:08:00.019Z,95.28
2023-02-23T07:12:04.495Z,97.84
2023-02-23T07:16:08.040Z,98.12
2023-02-23T07:20:13.933Z,96.38
2023-02-23T07:24:17.396Z,97.11
2023-02-23T07:28:21.520Z,96.05
2023-02-23T07:32:25.346Z,97.88
2023-02-23T07:36:29.782Z,97.57
2023-02-23T07:40:32.765Z,97.81
2023-02-23T07:44:35.735Z,97.12
2023-02-23T07:48:38.676Z,96.85
2023-02-23T07:52:44.266Z,97.71
2023-02-23T07:56:47.112Z,97.69
2023-02-23T08:00:49.953Z,97.19
2023-02-23T08:04:55.399Z,96.75
2023-02-23T08:09:01.593Z,95.55
2023-02-23T08:13:04.721Z,96.32
2023-02-23T08:17:07.741Z,96.75
2023-02-23T08:21:11.020Z,95.68
2023-02-23T08:25:16.608Z,94.93
2023-02-23T08:29:20.778Z,96.20
2023-02-23T08:33:24.122Z,94.55
2023-02-23T08:37:27.300Z,95.27
2023-02-23T08:41:32.334Z,95.34
2023-02-23T08:45:35.206Z,94.52
2023-02-23T08:49:38.227Z,94.00
2023-02-23T08:53:41.139Z,94.12
2023-02-23T08:57:45.788Z,94.40
2023-02-23T09:01:48.776Z,95.20
2023-02-23T09:05:51.710Z,95.43
2023-02-23T09:09:55.777Z,93.75
2023-02-23T09:14:01.082Z,94.05
2023-02-23T09:18:04.123Z,95.07
2023-02-23T09:22:06.985Z,95.62
2023-02-23T09:26:10.398Z,95.96
2023-02-23T09:30:18.093Z,94.08
2023-02-23T09:34:21.237Z,93.06
2023-02-23T09:38:25.855Z,94.03
2023-02-23T09:42:38.333Z,93.36
2023-02-23T09:46:46.869Z,91.75
2023-02-23T09:50:53.391Z,91.51
2023-02-23T09:54:56.331Z,90.00
2023-02-23T09:58:59.864Z,88.93
2023-02-23T10:03:19.447Z,91.03
2023-02-23T10:07:28.309Z,91.01
2023-02-23T10:11:38.415Z,92.04
2023-02-23T10:15:47.215Z,91.63
2023-02-23T10:19:57.473Z,91.96
2023-02-23T10:24:03.332Z,91.37
2023-02-23T10:28:07.175Z,92.04
2023-02-23T10:32:17.698Z,89.75
2023-02-23T10:36:33.345Z,88.52
2023-02-23T10:40:42.017Z,90.49
2023-02-23T10:44:48.632Z,89.25
2023-02-23T10:48:53.968Z,89.89
2023-02-23T10:53:01.716Z,88.84
2023-02-23T10:57:09.723Z,88.49
2023-02-23T11:01:13.610Z,91.18
2023-02-23T11:05:38.937Z,89.74
2023-02-23T11:09:47.378Z,91.88
2023-02-23T11:13:52.282Z,91.65
2023-02-23T11:17:57.672Z,90.30
2023-02-23T11:22:01.355Z,91.46
2023-02-23T11:26:06.605Z,89.03
2023-02-23T11:30:13.932Z,90.59
2023-02-23T11:34:24.499Z,87.55
2023-02-23T11:38:29.796Z,88.74
2023-02-23T11:42:34.784Z,88.84
2023-02-23T11:46:39.842Z,89.82
2023-02-23T11:50:51.614Z,90.74
2023-02-23T11:54:58.374Z,91.95
2023-02-23T11:59:04.782Z,90.16
2023-02-23T12:03:09.236Z,89.65
2023-02-23T12:07:37.511Z,90.55
2023-02-23T12:11:48.781Z,90.45
2023-02-23T12:15:56.137Z,90.04
2023-02-23T12:20:01.929Z,90.52
2023-02-23T12:24:14.964Z,90.28
2023-02-23T12:28:26.783Z,90.10
2023-02-23T12:32:45.394Z,89.96
2023-02-23T12:36:53.702Z,90.85
2023-02-23T12:41:06.297Z,90.54
2023-02-23T12:45:17.209Z,90.17
2023-02-23T12:49:27.481Z,91.38
2023-02-23T12:53:36.505Z,89.95
2023-02-23T12:57:45.045Z,89.47
2023-02-23T13:01:51.620Z,90.16
2023-02-23T13:05:58.751Z,89.37
2023-02-23T13:10:07.142Z,88.41
2023-02-23T13:14:13.979Z,89.95
2023-02-23T13:18:23.926Z,89.24
2023-02-23T13:22:30.362Z,89.62
2023-02-23T13:26:38.967Z,87.50
2023-02-23T13:30:47.500Z,87.64
2023-02-23T13:34:53.564Z,87.06
2023-02-23T13:39:21.387Z,87.77
2023-02-23T13:43:32.883Z,88.70
2023-02-23T13:47:41.341Z,87.53
2023-02-23T13:51:47.093Z,86.82
2023-02-23T13:55:53.581Z,87.13
2023-02-23T13:59:56.768Z,87.19
2023-02-23T14:04:02.272Z,86.72
2023-02-23T14:08:06.238Z,85.51
2023-02-23T14:12:19.646Z,85.61
2023-02-23T14:16:22.675Z,86.22
2023-02-23T14:20:47.940Z,85.79
2023-02-23T14:25:47.049Z,87.21
2023-02-23T14:30:17.659Z,86.08
2023-02-23T14:34:23.185Z,85.71
2023-02-23T14:38:46.988Z,86.57
2023-02-23T14:42:52.912Z,85.92
2023-02-23T14:47:03.506Z,85.17
2023-02-23T14:51:17.112Z,83.74
2023-02-23T14:55:23.554Z,82.47
2023-02-23T14:59:28.634Z,83.53
2023-02-23T15:03:33.643Z,84.67
2023-02-23T15:07:39.885Z,84.61
2023-02-23T15:11:46.424Z,85.93
2023-02-23T15:15:54.031Z,86.75
2023-02-23T15:20:14.839Z,86.16
2023-02-23T15:24:22.131Z,84.30
2023-02-23T15:28:32.365Z,86.74
2023-02-23T15:32:39.964Z,86.23
2023-02-23T15:36:47.393Z,85.60
2023-02-23T15:40:55.318Z,86.96
2023-02-23T15:45:03.793Z,87.02
2023-02-23T15:49:07.642Z,87.83
2023-02-23T15:53:24.667Z,87.60
2023-02-23T15:57:32.066Z,88.90
2023-02-23T16:01:38.960Z,88.01
2023-02-23T16:05:56.192Z,89.10
2023-02-23T16:10:07.569Z,90.52
2023-02-23T16:14:17.800Z,89.25
2023-02-23T16:18:23.443Z,89.54
2023-02-23T16:22:29.045Z,88.24
2023-02-23T16:26:37.524Z,88.60
2023-02-23T16:30:44.620Z,91.06
2023-02-23T16:34:51.595Z,90.08
2023-02-23T16:38:59.854Z,89.68
2023-02-23T16:43:04.588Z,90.51
2023-02-23T16:47:36.386Z,92.03
2023-02-23T16:51:40.889Z,91.56
2023-02-23T16:55:48.325Z,90.62
2023-02-23T16:59:55.389Z,91.71
2023-02-23T17:03:59.495Z,91.33
2023-02-23T17:08:03.280Z,93.03
2023-02-23T17:12:06.917Z,93.29
2023-02-23T17:16:14.510Z,92.56
2023-02-23T17:20:22.016Z,92.26
2023-02-23T17:24:26.310Z,92.34
2023-02-23T17:28:29.511Z,93.65
2023-02-23T17:32:34.424Z,95.21
2023-02-23T17:36:37.596Z,94.29
2023-02-23T17:40:41.280Z,93.89
2023-02-23T17:44:44.753Z,94.58
2023-02-23T17:48:57.178Z,94.75
2023-02-23T17:53:00.586Z,95.93
2023-02-23T17:57:04.584Z,95.34
2023-02-23T18:01:23.522Z,94.35
2023-02-23T18:05:28.491Z,93.34
2023-02-23T18:09:31.722Z,92.97
2023-02-23T18:13:37.414Z,92.96
2023-02-23T18:17:44.435Z,93.12
2023-02-23T18:21:56.558Z,96.02
2023-02-23T18:26:07.696Z,94.53
2023-02-23T18:30:12.801Z,95.17
2023-02-23T18:34:17.085Z,95.06
2023-02-23T18:38:29.059Z,94.30
2023-02-23T18:42:36.669Z,93.30
2023-02-23T18:46:41.974Z,94.05
2023-02-23T18:50:45.367Z,94.37
2023-02-23T18:54:53.365Z,95.63
2023-02-23T18:59:01.919Z,96.73
2023-02-23T19:03:05.211Z,96.54
2023-02-23T19:07:09.697Z,95.86
2023-02-23T19:11:14.801Z,95.66
2023-02-23T19:15:18.768Z,94.38
2023-02-23T19:19:22.422Z,94.70
2023-02-23T19:23:36.734Z,97.10
2023-02-23T19:27:45.928Z,95.24
2023-02-23T19:31:51.775Z,96.74
2023-02-23T19:36:01.274Z,95.77
2023-02-23T19:40:05.063Z,95.29
2023-02-23T19:44:09.977Z,94.44
2023-02-23T19:48:13.985Z,95.74
2023-02-23T19:52:18.238Z,95.62
2023-02-23T19:56:28.285Z,96.27
2023-02-23T20:00:37.316Z,95.35
2023-02-23T20:04:44.076Z,96.79
2023-02-23T20:08:49.342Z,96.01
2023-02-23T20:13:00.490Z,96.39
2023-02-23T20:17:15.225Z,96.68
2023-02-23T20:21:24.079Z,96.76
2023-02-23T20:25:28.821Z,94.63
2023-02-23T20:29:37.041Z,95.58
2023-02-23T20:33:43.203Z,94.89
2023-02-23T20:37:50.709Z,96.33
2023-02-23T20:41:54.902Z,97.05
2023-02-23T20:46:01.118Z,97.88
2023-02-23T20:50:10.747Z,98.13
2023-02-23T20:54:22.371Z,97.87
2023-02-23T20:58:26.552Z,96.85
2023-02-23T21:02:31.188Z,97.61
2023-02-23T21:06:36.481Z,96.50
2023-02-23T21:10:41.616Z,97.18
2023-02-23T21:14:53.955Z,96.17
2023-02-23T21:19:05.625Z,96.69
2023-02-23T21:23:10.989Z,96.00
2023-02-23T21:27:15.007Z,96.24
2023-02-23T21:31:18.193Z,96.52
2023-02-23T21:35:23.137Z,95.05
2023-02-23T21:39:31.095Z,95.40
2023-02-23T21:43:36.066Z,95.51
2023-02-23T21:47:41.744Z,94.52
2023-02-23T21:51:52.584Z,94.49
2023-02-23T21:56:03.704Z,94.52
2023-02-23T22:00:13.192Z,93.66
2023-02-23T22:04:18.294Z,93.06
2023-02-23T22:08:21.746Z,93.96
2023-02-23T22:12:27.802Z,93.67
2023-02-23T22:16:33.151Z,92.92
2023-02-23T22:20:36.552Z,92.69
2023-02-23T22:24:42.706Z,91.48
2023-02-23T22:28:47.856Z,91.86
2023-02-23T22:32:52.353Z,91.79
2023-02-23T22:36:56.931Z,91.90
2023-02-23T22:41:02.084Z,91.88
2023-02-23T22:45:08.637Z,90.86
2023-02-23T22:49:15.111Z,92.11
2023-02-23T22:53:20.056Z,90.68
2023-02-23T22:57:23.659Z,92.21
2023-02-23T23:01:28.511Z,92.90
2023-02-23T23:05:36.200Z,92.74
2023-02-23T23:09:43.397Z,91.24
2023-02-23T23:13:49.792Z,92.61
2023-02-23T23:17:54.840Z,92.51
2023-02-23T23:22:05.708Z,91.80
2023-02-23T23:26:09.018Z,91.58
2023-02-23T23:30:14.699Z,91.28
2023-02-23T23:34:27.059Z,92.40
2023-02-23T23:38:33.372Z,93.94
2023-02-23T23:42:37.082Z,93.90
2023-02-23T23:46:43.670Z,94.02
2023-02-23T23:50:50.092Z,93.53
2023-02-23T23:54:57.328Z,92.94
2023-02-23T23:59:07.983Z,93.37
